KHTO 211735Z AUTO 30004KT 10SM CLR 27/19 A3000 RMK AO2 T02670193

KHTO 211715Z AUTO 29007KT 10SM CLR 27/20 A3001 RMK AO2 T02650195

KHTO 211615Z AUTO 33006KT 10SM CLR 22/18 A3003 RMK AO2 T02150180

KHTO 211415Z AUTO 31006KT 10SM CLR 20/18 A3002 RMK AO2 T02010177

KHTO 211315Z AUTO 33005KT 10SM OVC002 17/17 A3001 RMK AO2 T01680166

KHTO 211155Z AUTO 32005KT 5SM BR OVC002 16/16 A2999 RMK AO2 70030 T01570155 10157 20139

KHTO 211055Z AUTO 00000KT 1/2SM FG OVC002 14/14 A2997 RMK AO2 LTG DSNT E T01430141

KHTO 211015Z AUTO 00000KT 1/4SM FG OVC002 14/14 A2995 RMK AO2 T01400138